Time;durP1;ratioP1;P1;durP2;ratioP2;P2;SDS_P1;SDS_P2;PMS_P1;PMS_P2;Temp;Humidity;BMP_temperature;BMP_pressure;BME280_temperature;BME280_humidity;BME280_pressure;Samples;Min_cycle;Max_cycle;Signal;HPM_P1;HPM_P2
2022/11/22 00:00:18;;;;;;;3.37;1.80;;;8.90;97.10;;;;;;944509;148;27365;-80
2022/11/22 00:02:45;;;;;;;2.63;2.00;;;8.90;97.20;;;;;;945262;148;27446;-78
2022/11/22 00:05:11;;;;;;;3.43;2.10;;;8.90;97.30;;;;;;920517;151;27323;-78
2022/11/22 00:07:38;;;;;;;3.07;1.93;;;8.90;97.30;;;;;;930968;150;27439;-78
2022/11/22 00:10:05;;;;;;;2.13;1.63;;;8.80;97.40;;;;;;931530;152;27446;-78
2022/11/22 00:12:31;;;;;;;2.30;2.10;;;8.80;97.60;;;;;;944673;148;27322;-79
2022/11/22 00:14:58;;;;;;;2.87;2.20;;;8.80;97.70;;;;;;945601;148;27376;-78
2022/11/22 00:17:24;;;;;;;3.60;2.03;;;8.80;98.00;;;;;;944228;148;27397;-78
2022/11/22 00:19:51;;;;;;;2.43;1.90;;;8.80;98.10;;;;;;944767;148;27407;-78
2022/11/22 00:22:18;;;;;;;2.47;2.10;;;8.80;98.10;;;;;;920260;154;27288;-79
2022/11/22 00:24:45;;;;;;;2.00;1.80;;;8.80;98.30;;;;;;930512;152;28017;-80
2022/11/22 00:27:11;;;;;;;2.87;2.03;;;8.80;98.30;;;;;;929972;152;27382;-79
2022/11/22 00:29:37;;;;;;;2.93;1.93;;;8.80;98.30;;;;;;931669;152;27438;-79
2022/11/22 00:32:04;;;;;;;2.63;2.20;;;8.80;98.40;;;;;;946140;148;27293;-78
2022/11/22 00:34:30;;;;;;;1.97;1.80;;;8.80;98.40;;;;;;945730;148;27307;-79
2022/11/22 00:36:57;;;;;;;2.73;1.80;;;8.80;98.40;;;;;;947341;148;27346;-79
2022/11/22 00:39:24;;;;;;;2.93;2.33;;;8.80;98.30;;;;;;946073;148;27442;-78
2022/11/22 00:41:50;;;;;;;3.83;1.93;;;8.80;98.30;;;;;;919704;151;27412;-76
2022/11/22 00:44:17;;;;;;;3.43;1.90;;;8.80;98.30;;;;;;932839;149;27359;-75
2022/11/22 00:46:43;;;;;;;3.30;1.90;;;8.80;98.40;;;;;;939158;147;27302;-77
2022/11/22 00:49:10;;;;;;;5.87;2.27;;;8.80;98.50;;;;;;942291;147;27431;-79
2022/11/22 00:51:37;;;;;;;2.67;2.00;;;8.80;98.60;;;;;;918068;150;27465;-80
2022/11/22 00:54:03;;;;;;;3.30;2.00;;;8.80;98.60;;;;;;941958;147;27336;-79
2022/11/22 00:56:30;;;;;;;2.40;2.10;;;8.90;98.70;;;;;;934959;149;27407;-78
2022/11/22 00:58:56;;;;;;;1.73;1.60;;;8.90;98.70;;;;;;939757;147;27344;-79
2022/11/22 01:01:23;;;;;;;1.63;1.53;;;8.90;98.80;;;;;;940591;147;27447;-80
2022/11/22 01:03:49;;;;;;;4.53;1.83;;;8.90;98.90;;;;;;917735;150;27378;-79
2022/11/22 01:06:16;;;;;;;2.77;1.77;;;8.90;98.90;;;;;;935241;149;27350;-78
2022/11/22 01:08:43;;;;;;;4.17;1.77;;;9.00;98.90;;;;;;931421;149;27468;-79
2022/11/22 01:11:09;;;;;;;2.43;1.70;;;9.00;98.80;;;;;;933090;149;27367;-79
2022/11/22 01:13:36;;;;;;;3.00;1.90;;;9.00;98.70;;;;;;941607;146;27382;-77
2022/11/22 01:16:02;;;;;;;3.40;2.03;;;9.00;98.70;;;;;;945577;147;27658;-78
2022/11/22 01:18:29;;;;;;;3.07;1.97;;;9.00;98.70;;;;;;924602;149;27480;-77
2022/11/22 01:20:56;;;;;;;3.47;1.80;;;9.10;98.70;;;;;;917329;151;27295;-77
2022/11/22 01:23:22;;;;;;;2.10;1.50;;;9.10;98.80;;;;;;940764;148;27423;-78
2022/11/22 01:25:49;;;;;;;3.80;1.70;;;9.10;98.80;;;;;;940201;148;27342;-78
2022/11/22 01:28:15;;;;;;;3.17;1.80;;;9.10;98.80;;;;;;940074;148;27381;-79
2022/11/22 01:30:42;;;;;;;2.70;1.47;;;9.10;98.80;;;;;;939734;147;27913;-78
2022/11/22 01:33:08;;;;;;;3.57;2.10;;;9.20;98.80;;;;;;933240;149;27347;-78
2022/11/22 01:35:35;;;;;;;2.70;1.53;;;9.20;98.80;;;;;;932388;148;27300;-79
2022/11/22 01:38:02;;;;;;;3.47;1.80;;;9.20;98.80;;;;;;932031;149;27304;-79
2022/11/22 01:40:28;;;;;;;4.03;1.70;;;9.20;98.80;;;;;;940103;147;27620;-79
2022/11/22 01:42:55;;;;;;;3.30;1.80;;;9.20;98.80;;;;;;938003;147;27469;-79
2022/11/22 01:45:31;;;;;;;3.40;1.67;;;9.30;98.80;;;;;;933230;149;27283;-78
2022/11/22 01:48:12;;;;;;;2.33;1.90;;;9.30;98.70;;;;;;933462;149;27877;-79
2022/11/22 01:50:39;;;;;;;2.43;1.60;;;9.30;98.30;;;;;;930748;149;27413;-79
2022/11/22 01:53:05;;;;;;;1.63;1.47;;;9.30;98.60;;;;;;932037;149;27385;-78
2022/11/22 01:55:32;;;;;;;1.80;1.50;;;9.30;98.60;;;;;;932147;149;27375;-78
2022/11/22 01:57:58;;;;;;;3.07;1.50;;;9.40;98.50;;;;;;934345;149;28038;-78
2022/11/22 02:00:25;;;;;;;3.40;2.13;;;9.40;98.50;;;;;;934434;149;27450;-80
2022/11/22 02:02:57;;;;;;;1.70;1.57;;;9.40;98.50;;;;;;943326;147;27350;-79
2022/11/22 02:05:24;;;;;;;1.87;1.50;;;9.40;98.50;;;;;;940159;147;27394;-80
2022/11/22 02:07:53;;;;;;;1.80;1.60;;;9.40;98.40;;;;;;941417;147;27441;-78
2022/11/22 02:10:20;;;;;;;2.87;1.70;;;9.50;98.40;;;;;;941501;147;27491;-78
2022/11/22 02:12:46;;;;;;;2.53;1.97;;;9.50;98.40;;;;;;917171;150;27340;-78
2022/11/22 02:15:13;;;;;;;2.97;1.70;;;9.50;98.80;;;;;;933617;149;27449;-78
2022/11/22 02:17:39;;;;;;;1.90;1.37;;;9.50;98.50;;;;;;933148;149;27424;-80
2022/11/22 02:20:06;;;;;;;2.23;1.50;;;9.50;98.50;;;;;;932983;149;27478;-78
2022/11/22 02:22:52;;;;;;;1.97;1.63;;;9.50;98.70;;;;;;935068;149;27468;-79
2022/11/22 02:25:36;;;;;;;2.93;1.70;;;9.50;98.70;;;;;;933024;149;27414;-78
2022/11/22 02:28:03;;;;;;;2.53;1.70;;;9.50;98.30;;;;;;934154;149;27409;-78
2022/11/22 02:30:30;;;;;;;3.60;1.80;;;9.50;98.70;;;;;;933448;149;27459;-78
2022/11/22 02:32:56;;;;;;;2.97;1.70;;;9.50;98.80;;;;;;940504;146;27348;-78
2022/11/22 02:35:23;;;;;;;3.10;2.30;;;9.50;98.80;;;;;;916581;151;27409;-78
2022/11/22 02:37:49;;;;;;;1.87;1.53;;;9.50;98.90;;;;;;932026;148;27453;-78
2022/11/22 02:40:16;;;;;;;2.33;1.70;;;9.50;99.00;;;;;;926390;149;27373;-78
2022/11/22 02:42:42;;;;;;;1.83;1.50;;;9.60;99.00;;;;;;923240;149;27359;-78
2022/11/22 02:45:09;;;;;;;3.13;1.87;;;9.60;99.00;;;;;;936204;149;27335;-78
2022/11/22 02:47:36;;;;;;;1.87;1.53;;;9.60;99.00;;;;;;956011;145;27290;-78
2022/11/22 02:50:03;;;;;;;1.73;1.63;;;9.60;99.10;;;;;;933615;149;27364;-77
2022/11/22 02:52:29;;;;;;;2.90;1.60;;;9.60;99.20;;;;;;954401;146;27358;-78
2022/11/22 02:54:55;;;;;;;2.03;1.80;;;9.60;99.10;;;;;;952058;145;27821;-77
2022/11/22 02:57:22;;;;;;;2.10;1.57;;;9.60;99.20;;;;;;953254;146;27344;-77
2022/11/22 02:59:49;;;;;;;1.90;1.70;;;9.70;99.20;;;;;;952995;146;27286;-78
2022/11/22 03:02:15;;;;;;;2.63;1.43;;;9.70;99.20;;;;;;934064;149;27340;-78
2022/11/22 03:04:42;;;;;;;3.13;1.53;;;9.70;99.30;;;;;;953447;147;27338;-77
2022/11/22 03:07:09;;;;;;;3.87;1.90;;;9.70;99.40;;;;;;932558;149;28451;-79
2022/11/22 03:09:35;;;;;;;3.87;1.73;;;9.70;99.40;;;;;;956592;145;27426;-78
2022/11/22 03:12:01;;;;;;;2.90;1.77;;;9.70;99.50;;;;;;932778;149;27386;-78
2022/11/22 03:14:28;;;;;;;2.57;1.93;;;9.70;99.50;;;;;;956910;145;27270;-79
2022/11/22 03:16:55;;;;;;;3.33;1.77;;;9.70;99.60;;;;;;955653;145;27394;-79
2022/11/22 03:19:21;;;;;;;2.07;1.57;;;9.70;99.60;;;;;;941347;148;27393;-79
2022/11/22 03:21:48;;;;;;;1.73;1.63;;;9.70;99.70;;;;;;938153;148;27416;-79
2022/11/22 03:24:14;;;;;;;4.60;2.00;;;9.80;99.80;;;;;;955310;145;27292;-78
2022/11/22 03:26:41;;;;;;;2.90;1.83;;;9.80;99.90;;;;;;938071;148;27343;-79
2022/11/22 03:29:08;;;;;;;3.43;1.50;;;9.80;99.90;;;;;;940795;148;27433;-78
2022/11/22 03:31:34;;;;;;;2.53;1.77;;;9.80;99.90;;;;;;953781;146;27436;-79
2022/11/22 03:34:01;;;;;;;2.50;1.50;;;9.80;99.90;;;;;;941058;151;27390;-79
2022/11/22 03:36:27;;;;;;;1.60;1.50;;;9.80;99.90;;;;;;953086;145;27329;-79
2022/11/22 03:38:54;;;;;;;1.80;1.70;;;9.80;99.80;;;;;;934638;149;27333;-79
2022/11/22 03:41:21;;;;;;;2.13;1.73;;;9.90;99.90;;;;;;957087;145;27294;-79
2022/11/22 03:43:47;;;;;;;3.23;1.70;;;9.90;99.90;;;;;;941048;147;27868;-79
2022/11/22 03:46:14;;;;;;;3.47;1.60;;;9.90;99.90;;;;;;944059;148;27374;-79
2022/11/22 03:48:40;;;;;;;1.50;1.40;;;9.90;99.90;;;;;;959341;145;27384;-79
2022/11/22 03:51:07;;;;;;;2.17;1.47;;;9.90;99.90;;;;;;945194;147;27347;-79
2022/11/22 03:53:33;;;;;;;4.07;1.67;;;9.90;99.90;;;;;;960739;145;27394;-79
2022/11/22 03:56:00;;;;;;;3.53;1.70;;;9.90;99.90;;;;;;944569;148;27388;-79
2022/11/22 03:58:27;;;;;;;2.23;1.60;;;9.90;99.90;;;;;;960368;145;27351;-79
2022/11/22 04:00:53;;;;;;;2.80;1.60;;;9.90;99.90;;;;;;946955;147;27328;-79
2022/11/22 04:03:20;;;;;;;2.70;1.70;;;9.90;99.90;;;;;;961346;145;27338;-79
2022/11/22 04:05:46;;;;;;;2.07;1.87;;;9.90;99.90;;;;;;945976;147;27318;-79
2022/11/22 04:08:13;;;;;;;2.20;1.60;;;9.90;99.90;;;;;;945571;147;27410;-79
2022/11/22 04:10:40;;;;;;;2.30;1.30;;;9.90;99.90;;;;;;960077;145;27345;-79
2022/11/22 04:13:06;;;;;;;2.47;1.60;;;9.90;99.90;;;;;;943550;148;27320;-79
2022/11/22 04:15:33;;;;;;;2.80;1.80;;;9.90;99.90;;;;;;960874;145;27327;-79
2022/11/22 04:17:59;;;;;;;1.60;1.50;;;9.90;99.90;;;;;;944962;147;27314;-79
2022/11/22 04:23:14;;;;;;;1.70;1.37;;;9.80;99.90;;;;;;961584;145;27347;-80
2022/11/22 04:25:40;;;;;;;2.20;1.50;;;9.80;99.90;;;;;;951310;146;27350;-80
2022/11/22 04:28:07;;;;;;;3.70;1.57;;;9.80;99.90;;;;;;962129;145;27424;-79
2022/11/22 04:33:18;;;;;;;1.70;1.60;;;9.80;99.90;;;;;;946514;147;27327;-79
2022/11/22 04:35:45;;;;;;;1.70;1.53;;;9.80;99.90;;;;;;941214;148;27368;-79
2022/11/22 04:38:11;;;;;;;2.47;1.50;;;9.70;99.70;;;;;;961644;145;27350;-79
2022/11/22 04:40:38;;;;;;;3.23;2.00;;;9.70;99.60;;;;;;943518;147;27341;-80
2022/11/22 04:45:49;;;;;;;2.03;1.33;;;9.60;99.80;;;;;;909726;152;27464;-80
2022/11/22 04:48:16;;;;;;;2.77;1.80;;;9.50;99.90;;;;;;908559;152;27372;-80
2022/11/22 04:53:27;;;;;;;1.90;1.80;;;9.40;99.90;;;;;;923298;149;27479;-79
2022/11/22 04:55:54;;;;;;;1.50;1.40;;;9.30;99.90;;;;;;910680;152;27462;-79
2022/11/22 04:58:21;;;;;;;1.83;1.57;;;9.30;99.90;;;;;;920519;151;27494;-78
2022/11/22 05:00:47;;;;;;;2.40;1.70;;;9.30;99.90;;;;;;921763;151;27429;-79
2022/11/22 05:03:14;;;;;;;2.60;1.80;;;9.20;99.90;;;;;;923186;149;27917;-79
2022/11/22 05:05:40;;;;;;;1.60;1.50;;;9.10;99.90;;;;;;921910;149;27832;-79
2022/11/22 05:08:07;;;;;;;1.77;1.67;;;9.10;99.90;;;;;;924257;149;27912;-79
2022/11/22 05:13:18;;;;;;;2.10;1.90;;;9.00;99.90;;;;;;924900;150;27917;-79
2022/11/22 05:15:45;;;;;;;2.27;1.93;;;9.00;99.90;;;;;;928763;150;27391;-79
2022/11/22 05:18:11;;;;;;;4.90;2.03;;;8.90;99.90;;;;;;922263;150;27493;-79
2022/11/22 05:20:38;;;;;;;2.20;2.00;;;8.90;99.90;;;;;;922075;151;27398;-79
2022/11/22 05:25:49;;;;;;;2.50;1.77;;;8.80;99.90;;;;;;884166;158;27623;-79
2022/11/22 05:28:15;;;;;;;2.90;2.20;;;8.80;99.90;;;;;;883926;158;27430;-81
2022/11/22 05:30:42;;;;;;;4.20;2.37;;;8.70;99.90;;;;;;895365;156;27867;-81
2022/11/22 05:33:08;;;;;;;2.90;2.30;;;8.60;99.90;;;;;;908471;152;27400;-81
2022/11/22 05:35:35;;;;;;;2.77;1.70;;;8.50;99.90;;;;;;924955;149;27374;-80
2022/11/22 05:38:02;;;;;;;2.07;1.77;;;8.50;99.90;;;;;;907320;152;27348;-81
2022/11/22 05:40:28;;;;;;;2.30;1.80;;;8.50;99.90;;;;;;908864;152;27752;-80
2022/11/22 05:42:55;;;;;;;4.27;2.07;;;8.40;99.90;;;;;;923581;149;27361;-80
2022/11/22 05:45:21;;;;;;;3.97;2.10;;;8.30;99.90;;;;;;919878;150;27412;-81
2022/11/22 05:47:48;;;;;;;2.63;2.00;;;8.30;99.90;;;;;;940497;147;27339;-81
2022/11/22 05:50:15;;;;;;;3.07;2.13;;;8.20;99.90;;;;;;924308;150;27352;-81
2022/11/22 05:52:41;;;;;;;3.17;2.30;;;8.20;99.90;;;;;;927606;150;27856;-81
2022/11/22 05:55:08;;;;;;;3.13;2.10;;;8.10;99.90;;;;;;925559;150;27437;-79
2022/11/22 05:57:34;;;;;;;3.23;2.40;;;8.10;99.90;;;;;;943314;147;27462;-79
2022/11/22 06:00:01;;;;;;;6.97;2.37;;;8.10;99.90;;;;;;918565;150;27319;-79
2022/11/22 06:02:28;;;;;;;5.83;2.90;;;8.00;99.90;;;;;;933845;149;27411;-78
2022/11/22 06:04:54;;;;;;;4.93;2.93;;;7.90;99.90;;;;;;936264;149;27368;-79
2022/11/22 06:07:21;;;;;;;5.97;3.40;;;7.90;99.90;;;;;;936985;147;27582;-78
2022/11/22 06:09:47;;;;;;;4.57;3.00;;;7.80;99.90;;;;;;932172;149;27520;-78
2022/11/22 06:12:14;;;;;;;4.00;2.30;;;7.80;99.90;;;;;;934224;149;27901;-79
2022/11/22 06:14:40;;;;;;;3.53;2.40;;;7.70;99.90;;;;;;941763;148;27313;-78
2022/11/22 06:17:07;;;;;;;3.93;2.77;;;7.70;99.90;;;;;;927908;150;27359;-79
2022/11/22 06:19:34;;;;;;;5.87;2.37;;;7.60;99.90;;;;;;942078;147;27311;-80
2022/11/22 06:22:00;;;;;;;5.27;2.13;;;7.60;99.90;;;;;;942537;147;27348;-81
2022/11/22 06:24:27;;;;;;;3.07;2.17;;;7.50;99.90;;;;;;943858;147;27376;-81
2022/11/22 06:26:53;;;;;;;8.23;3.30;;;7.50;99.90;;;;;;916623;150;28710;-81
2022/11/22 06:29:20;;;;;;;4.33;2.43;;;7.50;99.90;;;;;;936287;149;27329;-81
2022/11/22 06:31:47;;;;;;;5.33;2.40;;;7.40;99.90;;;;;;933677;149;27362;-81
2022/11/22 06:34:13;;;;;;;4.93;2.47;;;7.40;99.90;;;;;;933918;149;27369;-81
2022/11/22 06:36:40;;;;;;;5.70;2.50;;;7.40;99.90;;;;;;935378;149;27476;-81
2022/11/22 06:39:06;;;;;;;3.53;2.57;;;7.40;99.90;;;;;;933065;149;27815;-81
2022/11/22 06:41:33;;;;;;;4.07;1.80;;;7.40;99.90;;;;;;931575;149;27424;-81
2022/11/22 06:43:59;;;;;;;5.07;2.90;;;7.40;99.90;;;;;;932038;149;27403;-81
2022/11/22 06:46:26;;;;;;;4.83;2.27;;;7.40;99.90;;;;;;932144;150;27415;-79
2022/11/22 06:48:53;;;;;;;7.67;2.33;;;7.40;99.90;;;;;;930270;150;27397;-79
2022/11/22 06:51:19;;;;;;;7.20;2.80;;;7.40;99.90;;;;;;937945;151;27325;-79
2022/11/22 06:53:46;;;;;;;6.13;2.60;;;7.40;99.90;;;;;;933210;150;27397;-80
2022/11/22 06:56:12;;;;;;;5.93;2.40;;;7.40;99.90;;;;;;933415;150;27413;-80
2022/11/22 06:58:39;;;;;;;11.30;3.23;;;7.30;99.90;;;;;;931206;150;27326;-79
2022/11/22 07:01:06;;;;;;;5.17;3.00;;;7.30;99.90;;;;;;930857;150;27389;-80
2022/11/22 07:03:32;;;;;;;7.43;2.57;;;7.30;99.90;;;;;;931110;150;27398;-80
2022/11/22 07:05:59;;;;;;;6.40;2.50;;;7.30;99.90;;;;;;931135;152;27417;-79
2022/11/22 07:08:25;;;;;;;7.63;3.00;;;7.30;99.90;;;;;;938937;148;27922;-79
2022/11/22 07:10:52;;;;;;;9.83;2.77;;;7.30;99.90;;;;;;928888;152;27355;-80
2022/11/22 07:13:18;;;;;;;5.77;3.00;;;7.30;99.90;;;;;;931567;151;27334;-79
2022/11/22 07:15:57;;;;;;;7.27;2.83;;;7.30;99.90;;;;;;947057;148;27380;-80
2022/11/22 07:18:24;;;;;;;5.30;2.57;;;7.30;99.90;;;;;;932932;150;27423;-79
2022/11/22 07:20:50;;;;;;;8.93;3.33;;;7.30;99.90;;;;;;933907;151;27239;-79
2022/11/22 07:23:17;;;;;;;6.83;2.70;;;7.30;99.90;;;;;;933815;150;27337;-79
2022/11/22 07:25:44;;;;;;;6.77;2.90;;;7.30;99.90;;;;;;948781;148;27429;-79
2022/11/22 07:28:10;;;;;;;6.33;2.83;;;7.30;99.90;;;;;;940277;150;27364;-79
2022/11/22 07:30:37;;;;;;;7.63;2.80;;;7.30;99.90;;;;;;940995;148;27347;-80
2022/11/22 07:33:03;;;;;;;7.50;3.00;;;7.40;99.90;;;;;;938594;151;27358;-80
2022/11/22 07:35:30;;;;;;;4.13;2.53;;;7.40;99.90;;;;;;939375;149;27391;-80
2022/11/22 07:37:57;;;;;;;4.77;2.60;;;7.40;99.90;;;;;;938266;149;27389;-80
2022/11/22 07:40:23;;;;;;;6.17;2.50;;;7.50;99.90;;;;;;938209;151;27312;-80
2022/11/22 07:42:50;;;;;;;7.13;2.97;;;7.50;99.90;;;;;;938384;151;27458;-79
2022/11/22 07:45:16;;;;;;;9.67;2.50;;;7.60;99.90;;;;;;939244;151;28541;-80
2022/11/22 07:47:43;;;;;;;3.47;2.73;;;7.60;99.90;;;;;;938709;148;27835;-79
2022/11/22 07:50:09;;;;;;;5.07;2.63;;;7.70;99.90;;;;;;940885;148;27399;-80
2022/11/22 07:52:36;;;;;;;7.33;2.83;;;7.70;99.90;;;;;;940763;148;27338;-80
2022/11/22 07:55:03;;;;;;;5.33;2.80;;;7.80;99.90;;;;;;941488;148;27364;-79
2022/11/22 07:57:29;;;;;;;6.97;3.23;;;7.80;99.90;;;;;;940121;148;27396;-79
2022/11/22 07:59:56;;;;;;;6.17;3.47;;;7.90;99.90;;;;;;939204;148;27350;-80
2022/11/22 08:02:22;;;;;;;7.13;3.30;;;7.90;99.90;;;;;;940210;148;27304;-80
2022/11/22 08:04:49;;;;;;;8.37;3.43;;;8.00;99.90;;;;;;939971;148;27337;-80
2022/11/22 08:07:16;;;;;;;8.63;3.00;;;8.00;99.90;;;;;;941456;148;27328;-80
2022/11/22 08:09:42;;;;;;;6.10;3.03;;;8.10;99.90;;;;;;942026;148;27401;-80
2022/11/22 08:12:09;;;;;;;4.50;2.63;;;8.10;99.90;;;;;;940037;148;27353;-79
2022/11/22 08:14:35;;;;;;;5.13;3.40;;;8.20;99.90;;;;;;940835;148;27286;-79
2022/11/22 08:17:02;;;;;;;5.67;4.20;;;8.20;99.90;;;;;;939244;148;27333;-80
2022/11/22 08:19:28;;;;;;;5.23;3.07;;;8.30;99.90;;;;;;956004;145;27297;-79
2022/11/22 08:21:55;;;;;;;7.20;2.97;;;8.40;99.90;;;;;;952692;145;27463;-79
2022/11/22 08:24:22;;;;;;;4.77;2.77;;;8.50;99.90;;;;;;933371;149;27390;-79
2022/11/22 08:26:48;;;;;;;4.00;2.70;;;8.50;99.90;;;;;;954430;145;27344;-80
2022/11/22 08:29:15;;;;;;;7.40;2.90;;;8.60;99.90;;;;;;954902;145;27273;-80
2022/11/22 08:31:41;;;;;;;5.00;2.73;;;8.60;99.90;;;;;;943709;148;27371;-80
2022/11/22 08:34:08;;;;;;;11.27;2.60;;;8.70;99.90;;;;;;955764;146;27362;-79
2022/11/22 08:36:35;;;;;;;4.63;2.30;;;8.80;99.90;;;;;;939149;148;27396;-79
2022/11/22 08:39:01;;;;;;;4.87;2.40;;;8.80;99.90;;;;;;940428;148;27403;-79
2022/11/22 08:41:28;;;;;;;4.43;2.30;;;8.90;99.90;;;;;;954998;146;27385;-79
2022/11/22 08:43:54;;;;;;;7.97;2.33;;;9.00;99.90;;;;;;954294;145;27328;-80
2022/11/22 08:46:21;;;;;;;9.00;3.17;;;9.10;99.90;;;;;;934691;149;27804;-79
2022/11/22 08:48:47;;;;;;;6.97;3.53;;;9.20;99.90;;;;;;954159;145;27451;-79
2022/11/22 08:51:14;;;;;;;11.40;3.43;;;9.20;99.90;;;;;;935992;148;28030;-79
2022/11/22 08:53:41;;;;;;;6.93;3.63;;;9.30;99.90;;;;;;939397;148;27455;-80
2022/11/22 08:56:08;;;;;;;8.33;3.83;;;9.40;99.90;;;;;;953166;146;27394;-80
2022/11/22 08:58:34;;;;;;;6.27;2.73;;;9.40;99.90;;;;;;939597;148;27345;-80
2022/11/22 09:01:03;;;;;;;9.43;4.30;;;9.50;99.90;;;;;;953429;148;27350;-80
2022/11/22 09:03:30;;;;;;;8.17;4.00;;;9.60;99.90;;;;;;954641;148;28564;-81
2022/11/22 09:05:59;;;;;;;7.00;3.50;;;9.60;99.90;;;;;;953392;148;27409;-80
2022/11/22 09:08:26;;;;;;;6.50;2.50;;;9.70;99.90;;;;;;954552;148;27495;-80
2022/11/22 09:10:53;;;;;;;5.67;2.90;;;9.80;99.90;;;;;;953165;148;27244;-80
2022/11/22 09:13:19;;;;;;;7.53;2.43;;;9.90;99.90;;;;;;953918;148;27445;-80
2022/11/22 09:15:46;;;;;;;10.80;2.53;;;10.00;99.90;;;;;;956311;146;28194;-80
2022/11/22 09:18:12;;;;;;;6.07;2.53;;;10.10;99.90;;;;;;954341;146;27295;-80
2022/11/22 09:20:39;;;;;;;4.17;2.30;;;10.20;99.90;;;;;;954919;146;27327;-80
2022/11/22 09:23:06;;;;;;;5.13;2.03;;;10.20;99.90;;;;;;958010;145;27402;-80
2022/11/22 09:25:32;;;;;;;6.37;2.00;;;10.40;99.90;;;;;;935525;149;27467;-80
2022/11/22 09:28:01;;;;;;;5.23;2.07;;;10.40;99.90;;;;;;952701;145;27458;-80
2022/11/22 09:30:25;;;;;;;5.83;2.40;;;10.50;99.90;;;;;;953134;146;27293;-80
2022/11/22 09:32:52;;;;;;;9.00;2.80;;;10.60;99.90;;;;;;948773;147;27430;-80
2022/11/22 09:35:19;;;;;;;4.00;2.10;;;10.70;99.90;;;;;;953192;148;27343;-80
2022/11/22 09:37:45;;;;;;;3.87;2.20;;;10.80;99.90;;;;;;955802;145;27963;-80
2022/11/22 09:40:12;;;;;;;5.67;2.67;;;10.90;99.90;;;;;;955538;148;27331;-80
2022/11/22 09:42:56;;;;;;;5.23;2.27;;;11.00;99.90;;;;;;953819;148;27651;-80
2022/11/22 09:45:38;;;;;;;6.43;2.07;;;11.10;99.90;;;;;;915289;148;27288;-80
2022/11/22 09:48:19;;;;;;;7.27;2.27;;;11.20;99.90;;;;;;951639;148;27352;-80
2022/11/22 09:50:54;;;;;;;4.63;2.67;;;11.20;99.90;;;;;;929947;152;27369;-79
2022/11/22 09:53:45;;;;;;;6.30;2.10;;;11.30;99.90;;;;;;938591;150;27650;-80
2022/11/22 09:56:11;;;;;;;6.40;2.20;;;11.30;99.90;;;;;;945437;147;27332;-80
2022/11/22 09:58:47;;;;;;;5.67;2.13;;;11.30;99.90;;;;;;946748;147;27407;-79
2022/11/22 10:01:16;;;;;;;6.97;2.30;;;11.40;99.90;;;;;;941887;150;27364;-79
2022/11/22 10:03:51;;;;;;;4.57;2.27;;;11.50;99.90;;;;;;946389;149;27380;-79
2022/11/22 10:06:20;;;;;;;3.80;1.97;;;11.50;99.90;;;;;;935122;150;27352;-80
2022/11/22 10:08:47;;;;;;;6.13;3.20;;;11.60;99.90;;;;;;923081;150;27505;-79
2022/11/22 10:11:25;;;;;;;5.37;2.17;;;11.60;99.70;;;;;;946960;147;27453;-80
2022/11/22 10:13:52;;;;;;;5.33;2.77;;;11.70;99.50;;;;;;946112;150;27803;-81
2022/11/22 10:16:24;;;;;;;7.40;3.50;;;11.70;99.10;;;;;;937433;148;27307;-80
2022/11/22 10:18:57;;;;;;;7.70;4.30;;;11.70;99.40;;;;;;939725;150;27399;-80
2022/11/22 10:21:23;;;;;;;3.42;2.47;;;11.80;99.30;;;;;;936902;150;27371;-81
2022/11/22 10:23:50;;;;;;;6.17;2.37;;;11.90;99.10;;;;;;945886;147;27446;-80
2022/11/22 10:26:35;;;;;;;5.90;2.83;;;11.90;98.50;;;;;;924676;151;27406;-80
2022/11/22 10:29:04;;;;;;;4.20;1.90;;;12.00;98.30;;;;;;938401;151;27893;-80
2022/11/22 10:31:36;;;;;;;4.05;1.87;;;12.00;97.70;;;;;;945231;147;27308;-80
2022/11/22 10:34:15;;;;;;;5.80;2.13;;;12.00;97.40;;;;;;946609;147;27444;-80
2022/11/22 10:36:50;;;;;;;3.17;1.70;;;12.10;97.20;;;;;;945684;150;27279;-79
2022/11/22 10:39:25;;;;;;;6.23;2.03;;;12.10;97.20;;;;;;933370;147;27288;-80
2022/11/22 10:42:14;;;;;;;4.47;2.50;;;12.10;96.50;;;;;;944315;147;27843;-80
2022/11/22 10:44:46;;;;;;;3.33;1.60;;;12.10;96.00;;;;;;947066;150;27421;-80
2022/11/22 10:47:21;;;;;;;3.62;1.47;;;12.20;96.10;;;;;;946445;147;27363;-80
2022/11/22 10:49:57;;;;;;;5.90;2.12;;;12.20;96.00;;;;;;906135;152;27413;-79
2022/11/22 10:52:23;;;;;;;4.70;1.83;;;12.30;95.80;;;;;;922854;151;27369;-80
2022/11/22 10:55:08;;;;;;;4.93;2.00;;;12.30;95.60;;;;;;907058;153;27444;-79
2022/11/22 10:57:49;;;;;;;3.10;1.90;;;12.40;95.30;;;;;;907210;152;27414;-81
2022/11/22 11:00:25;;;;;;;5.00;1.65;;;12.40;95.00;;;;;;921856;149;27423;-80
2022/11/22 11:03:03;;;;;;;7.67;2.35;;;12.40;94.70;;;;;;924649;149;27321;-80
2022/11/22 11:05:33;;;;;;;5.63;1.77;;;12.50;94.90;;;;;;924142;149;27403;-80
2022/11/22 11:07:59;;;;;;;7.37;3.27;;;12.50;94.70;;;;;;920901;149;27449;-80
2022/11/22 11:10:26;;;;;;;8.10;2.70;;;12.50;93.70;;;;;;910687;152;27496;-80
2022/11/22 11:12:52;;;;;;;4.30;1.90;;;12.60;93.10;;;;;;924834;149;27516;-80
2022/11/22 11:15:34;;;;;;;5.60;2.07;;;12.60;92.80;;;;;;923467;149;27321;-79
2022/11/22 11:18:01;;;;;;;6.00;1.93;;;12.60;92.30;;;;;;923147;149;27423;-80
2022/11/22 11:20:27;;;;;;;5.03;1.93;;;12.60;91.80;;;;;;925104;149;27467;-79
2022/11/22 11:22:54;;;;;;;3.53;1.50;;;12.60;91.60;;;;;;923330;150;27374;-79
2022/11/22 11:25:26;;;;;;;7.07;1.87;;;12.60;91.50;;;;;;924107;149;27363;-80
2022/11/22 11:27:53;;;;;;;3.57;1.50;;;12.60;91.30;;;;;;909364;151;27485;-79
2022/11/22 11:30:19;;;;;;;4.17;1.53;;;12.60;91.60;;;;;;907835;151;27447;-80
2022/11/22 11:32:55;;;;;;;4.57;1.80;;;12.60;91.50;;;;;;908390;153;27335;-80
2022/11/22 11:35:22;;;;;;;6.72;1.92;;;12.70;91.30;;;;;;906033;152;27395;-80
2022/11/22 11:37:48;;;;;;;3.55;1.70;;;12.70;91.20;;;;;;923812;149;27331;-80
2022/11/22 11:40:30;;;;;;;5.07;1.70;;;12.70;91.30;;;;;;921594;149;27315;-80
2022/11/22 11:43:15;;;;;;;3.37;1.33;;;12.70;91.20;;;;;;907174;152;27328;-80
2022/11/22 11:45:41;;;;;;;6.10;1.70;;;12.70;91.10;;;;;;907611;152;27447;-80
2022/11/22 11:48:27;;;;;;;3.97;1.73;;;12.80;91.10;;;;;;922673;149;27337;-80
2022/11/22 11:51:11;;;;;;;1.83;1.50;;;12.80;91.10;;;;;;943933;147;27320;-80
2022/11/22 11:53:38;;;;;;;3.43;1.57;;;12.80;91.30;;;;;;918257;151;27467;-80
2022/11/22 11:56:17;;;;;;;3.43;1.40;;;12.90;91.40;;;;;;925338;150;27449;-80
2022/11/22 11:58:43;;;;;;;4.08;2.10;;;12.90;91.20;;;;;;929726;149;27638;-80
2022/11/22 12:01:10;;;;;;;4.33;2.13;;;13.00;90.90;;;;;;938054;146;27352;-80
2022/11/22 12:03:37;;;;;;;3.27;1.50;;;13.00;90.60;;;;;;916210;150;27312;-80
2022/11/22 12:06:12;;;;;;;5.30;1.37;;;13.00;90.20;;;;;;943137;147;27334;-80
2022/11/22 12:08:39;;;;;;;4.03;1.50;;;13.00;89.30;;;;;;919302;150;27890;-80
2022/11/22 12:11:07;;;;;;;6.92;2.10;;;13.00;89.20;;;;;;932624;149;27475;-80
2022/11/22 12:13:41;;;;;;;4.43;1.63;;;13.00;87.60;;;;;;932868;149;27399;-80
2022/11/22 12:16:22;;;;;;;3.17;1.70;;;13.00;88.20;;;;;;934166;149;27365;-80
2022/11/22 12:19:01;;;;;;;6.03;1.50;;;13.00;87.60;;;;;;933730;149;27358;-80
2022/11/22 12:21:36;;;;;;;6.30;1.90;;;12.90;87.40;;;;;;940723;146;27350;-79
2022/11/22 12:24:09;;;;;;;5.70;1.47;;;12.90;88.00;;;;;;940130;147;27948;-79
2022/11/22 12:26:35;;;;;;;3.73;1.40;;;12.90;87.30;;;;;;939702;147;27303;-79
2022/11/22 12:29:02;;;;;;;8.20;1.80;;;12.90;87.10;;;;;;941287;147;27266;-79
2022/11/22 12:31:28;;;;;;;9.48;2.47;;;12.90;86.90;;;;;;940069;147;27432;-80
2022/11/22 12:34:07;;;;;;;5.60;1.77;;;12.90;86.50;;;;;;936057;148;27433;-80
2022/11/22 12:36:36;;;;;;;7.53;2.10;;;12.80;86.70;;;;;;932688;149;27444;-79
2022/11/22 12:39:03;;;;;;;5.47;2.07;;;12.80;86.70;;;;;;924344;150;27357;-79
2022/11/22 12:41:29;;;;;;;6.92;1.90;;;12.80;86.50;;;;;;934577;149;27331;-78
2022/11/22 12:44:02;;;;;;;7.20;2.20;;;12.80;86.80;;;;;;932482;149;27362;-79
2022/11/22 12:46:28;;;;;;;2.40;1.33;;;12.80;86.80;;;;;;934283;149;27319;-80
2022/11/22 12:49:00;;;;;;;6.10;2.42;;;12.80;86.60;;;;;;932822;149;27427;-79
2022/11/22 12:51:48;;;;;;;5.20;1.70;;;12.70;87.00;;;;;;933686;149;27354;-79
2022/11/22 12:54:21;;;;;;;2.98;1.75;;;12.80;87.00;;;;;;932835;149;27330;-79
2022/11/22 12:56:53;;;;;;;2.27;1.80;;;12.80;87.00;;;;;;904484;150;27447;-79
2022/11/22 12:59:43;;;;;;;2.55;1.55;;;12.80;87.00;;;;;;917198;150;27372;-79
2022/11/22 13:02:16;;;;;;;3.03;1.50;;;12.80;86.70;;;;;;940899;147;27353;-80
2022/11/22 13:04:49;;;;;;;5.40;2.27;;;12.80;86.60;;;;;;918132;150;27383;-79
2022/11/22 13:07:27;;;;;;;1.80;1.40;;;12.80;86.50;;;;;;940319;147;27875;-79
2022/11/22 13:09:57;;;;;;;3.87;1.80;;;12.80;86.20;;;;;;915980;150;27310;-80
2022/11/22 13:12:23;;;;;;;2.65;1.27;;;12.80;86.20;;;;;;929198;149;27343;-80
2022/11/22 13:14:51;;;;;;;3.20;1.60;;;12.80;86.20;;;;;;930870;149;27331;-80